Time;durP1;ratioP1;P1;durP2;ratioP2;P2;SDS_P1;SDS_P2;PMS_P1;PMS_P2;Temp;Humidity;BMP_temperature;BMP_pressure;BME280_temperature;BME280_humidity;BME280_pressure;Samples;Min_cycle;Max_cycle;Signal;HPM_P1;HPM_P2
2022/12/28 00:01:14;;;;;;;7.43;2.53;;;;;;;5.53;82.98;101400.81;5051833;28;20454;-61
2022/12/28 00:03:42;;;;;;;7.93;2.47;;;;;;;5.53;83.14;101402.56;5057132;28;20158;-61
2022/12/28 00:06:09;;;;;;;10.15;2.53;;;;;;;5.45;83.74;101400.47;5078217;28;20047;-60
2022/12/28 00:08:37;;;;;;;15.25;2.92;;;;;;;5.46;83.43;101409.25;5056030;28;20131;-60
2022/12/28 00:11:07;;;;;;;10.90;3.15;;;;;;;5.56;83.47;101405.84;5049323;28;20051;-60
2022/12/28 00:13:36;;;;;;;11.52;3.10;;;;;;;5.47;83.51;101405.63;5031208;28;20650;-60
2022/12/28 00:16:07;;;;;;;17.10;3.15;;;;;;;5.59;83.63;101407.44;5012334;28;20059;-60
2022/12/28 00:18:36;;;;;;;13.45;3.22;;;;;;;5.67;83.53;101409.53;5063765;28;20051;-60
2022/12/28 00:21:04;;;;;;;8.75;2.72;;;;;;;5.57;83.74;101404.91;5044612;28;20378;-59
2022/12/28 00:23:31;;;;;;;13.50;3.03;;;;;;;5.62;85.08;101406.38;5039996;28;20522;-59
2022/12/28 00:26:07;;;;;;;10.95;2.95;;;;;;;5.73;86.72;101393.31;5048762;28;20476;-60
2022/12/28 00:28:35;;;;;;;13.10;2.97;;;;;;;5.69;88.64;101387.41;5056534;28;20687;-61
2022/12/28 00:31:02;;;;;;;9.50;2.95;;;;;;;5.67;88.74;101376.16;5044495;28;20078;-60
2022/12/28 00:33:30;;;;;;;15.52;3.50;;;;;;;5.60;89.61;101364.38;5039773;28;20111;-61
2022/12/28 00:35:59;;;;;;;11.18;2.83;;;;;;;5.62;90.04;101359.84;5061638;28;20051;-60
2022/12/28 00:38:30;;;;;;;13.80;2.90;;;;;;;5.54;89.76;101346.38;5047027;28;20139;-60
2022/12/28 00:40:58;;;;;;;12.73;2.70;;;;;;;5.61;91.08;101346.81;5061688;28;20040;-60
2022/12/28 00:43:26;;;;;;;12.48;2.90;;;;;;;5.64;90.92;101342.16;5040027;28;20041;-61
2022/12/28 00:45:53;;;;;;;7.82;3.13;;;;;;;5.58;91.52;101350.47;5020880;28;20469;-60
2022/12/28 00:48:20;;;;;;;9.25;2.80;;;;;;;5.60;92.44;101337.22;5018053;28;20383;-60
2022/12/28 00:50:47;;;;;;;13.40;3.00;;;;;;;5.60;91.96;101335.41;5020174;28;20041;-60
2022/12/28 00:53:14;;;;;;;10.63;2.60;;;;;;;5.64;91.81;101329.00;5003215;28;20065;-61
2022/12/28 00:55:43;;;;;;;8.38;2.95;;;;;;;5.70;91.51;101315.41;5007714;28;20049;-59
2022/12/28 00:58:10;;;;;;;8.15;2.70;;;;;;;5.72;91.25;101308.22;5037835;28;20060;-60
2022/12/28 01:00:37;;;;;;;12.25;2.95;;;;;;;5.70;91.20;101290.88;4985175;28;20532;-60
2022/12/28 01:03:04;;;;;;;10.18;2.47;;;;;;;5.66;92.20;101295.50;5054636;28;20044;-60
2022/12/28 01:05:31;;;;;;;10.55;2.70;;;;;;;5.73;92.52;101286.22;5031415;28;20037;-60
2022/12/28 01:07:58;;;;;;;9.73;2.70;;;;;;;5.73;91.54;101288.00;5054035;28;20041;-60
2022/12/28 01:10:24;;;;;;;9.55;2.88;;;;;;;5.65;93.77;101296.44;5045430;28;20041;-60
2022/12/28 01:12:53;;;;;;;8.88;2.80;;;;;;;5.64;94.02;101286.03;5053930;28;20067;-61
2022/12/28 01:15:20;;;;;;;8.77;2.72;;;;;;;5.71;94.10;101285.50;5051871;28;20049;-60
2022/12/28 01:17:46;;;;;;;15.40;3.28;;;;;;;5.66;94.38;101284.97;5052514;28;20049;-60
2022/12/28 01:20:13;;;;;;;6.80;2.58;;;;;;;5.65;95.23;101280.66;5053450;28;20077;-59
2022/12/28 01:22:40;;;;;;;9.00;3.45;;;;;;;5.71;95.17;101274.09;5051078;28;20475;-60
2022/12/28 01:25:07;;;;;;;13.27;2.80;;;;;;;5.72;94.97;101250.31;5053040;28;20041;-60
2022/12/28 01:27:36;;;;;;;11.77;2.88;;;;;;;5.64;95.36;101249.19;5049330;28;20452;-60
2022/12/28 01:30:04;;;;;;;7.70;2.67;;;;;;;5.76;93.94;101250.94;5054161;28;20045;-60
2022/12/28 01:32:30;;;;;;;10.57;2.60;;;;;;;5.73;93.86;101252.00;5048480;28;20044;-60
2022/12/28 01:34:57;;;;;;;9.93;2.63;;;;;;;5.70;93.87;101252.22;5054223;28;20123;-60
2022/12/28 01:37:24;;;;;;;15.70;2.92;;;;;;;5.70;94.29;101254.84;5048140;28;20041;-60
2022/12/28 01:39:50;;;;;;;7.60;2.67;;;;;;;5.76;95.13;101249.13;5053871;28;20041;-61
2022/12/28 01:42:18;;;;;;;10.55;2.60;;;;;;;5.88;93.77;101236.88;5064893;28;20047;-60
2022/12/28 01:44:48;;;;;;;8.63;2.70;;;;;;;5.77;94.07;101227.13;5094175;28;20050;-60
2022/12/28 01:47:22;;;;;;;9.23;2.53;;;;;;;5.89;94.29;101224.56;5089357;28;20559;-60
2022/12/28 01:50:01;;;;;;;9.30;2.70;;;;;;;5.88;93.66;101221.09;5076406;28;20048;-60
2022/12/28 01:52:35;;;;;;;12.30;2.97;;;;;;;5.94;93.52;101222.44;5089537;28;20086;-60
2022/12/28 01:55:10;;;;;;;10.90;3.03;;;;;;;5.96;94.00;101223.19;5094230;28;20040;-61
2022/12/28 01:57:43;;;;;;;7.82;2.75;;;;;;;6.03;92.77;101213.88;5072770;28;20059;-60
2022/12/28 02:00:13;;;;;;;6.65;2.35;;;;;;;6.07;93.12;101206.59;5059776;28;20499;-59
2022/12/28 02:02:50;;;;;;;9.75;2.63;;;;;;;6.13;93.18;101203.50;5041170;28;20043;-60
2022/12/28 02:05:21;;;;;;;11.68;2.92;;;;;;;6.12;92.59;101204.47;5092091;28;20134;-60
2022/12/28 02:07:56;;;;;;;10.63;2.78;;;;;;;6.20;93.19;101214.44;5092055;28;20050;-60
2022/12/28 02:10:23;;;;;;;8.23;2.75;;;;;;;6.23;92.92;101209.78;5055441;28;20131;-61
2022/12/28 02:12:53;;;;;;;12.93;3.13;;;;;;;6.28;93.08;101196.28;5072475;28;20109;-60
2022/12/28 02:15:20;;;;;;;8.32;3.00;;;;;;;6.28;93.67;101183.94;5078230;28;20059;-60
2022/12/28 02:18:11;;;;;;;7.68;2.92;;;;;;;6.44;91.88;101180.13;5073454;28;20048;-60
2022/12/28 02:21:17;;;;;;;6.90;2.78;;;;;;;6.36;92.38;101185.97;5093524;28;20044;-60
2022/12/28 02:32:22;;;;;;;9.77;2.90;;;;;;;6.33;92.77;101173.03;5106538;27;20626;-59
2022/12/28 02:35:17;;;;;;;9.48;2.90;;;;;;;6.44;91.62;101177.47;5111121;28;20493;-59
2022/12/28 02:37:54;;;;;;;8.75;2.75;;;;;;;6.41;92.61;101161.94;5106482;28;20051;-59
2022/12/28 02:40:28;;;;;;;8.20;2.85;;;;;;;6.51;91.19;101160.25;5110986;28;20097;-59
2022/12/28 02:42:56;;;;;;;9.52;2.60;;;;;;;6.48;91.27;101158.69;5105260;28;20120;-59
2022/12/28 02:57:58;;;;;;;7.38;2.47;;;;;;;6.63;90.49;101127.69;5086318;28;20105;-59
2022/12/28 03:00:40;;;;;;;8.38;2.28;;;;;;;6.62;91.19;101118.09;5072547;28;20054;-59
2022/12/28 03:03:47;;;;;;;12.00;2.67;;;;;;;6.66;91.58;101116.06;5086230;28;20098;-59
2022/12/28 03:09:30;;;;;;;6.43;2.10;;;;;;;6.71;91.00;101103.34;5090538;28;20071;-59
2022/12/28 03:12:07;;;;;;;7.85;2.58;;;;;;;6.74;90.57;101103.13;5067344;28;20123;-59
2022/12/28 03:14:42;;;;;;;11.27;2.65;;;;;;;6.79;90.07;101093.06;5072592;28;20113;-59
2022/12/28 03:31:31;;;;;;;9.45;2.53;;;;;;;6.80;90.30;101060.44;5088938;28;20516;-59
2022/12/28 03:34:06;;;;;;;6.68;2.30;;;;;;;6.86;90.49;101064.41;5054696;28;20044;-59
2022/12/28 03:37:01;;;;;;;7.30;2.28;;;;;;;6.86;90.48;101059.97;5070435;28;20498;-59
2022/12/28 03:45:32;;;;;;;7.53;2.25;;;;;;;6.97;89.55;101039.78;5110966;28;20126;-59
2022/12/28 03:48:01;;;;;;;8.93;2.38;;;;;;;6.90;89.81;101050.84;5089386;28;20047;-60
2022/12/28 03:50:33;;;;;;;8.55;2.10;;;;;;;6.89;90.32;101045.69;5111191;28;20040;-59
2022/12/28 03:53:00;;;;;;;5.93;2.15;;;;;;;7.07;89.07;101036.28;5106512;28;20040;-60
2022/12/28 03:55:29;;;;;;;7.13;2.40;;;;;;;7.07;89.36;101036.28;5109934;28;20471;-59
2022/12/28 03:57:56;;;;;;;5.40;2.05;;;;;;;7.05;90.00;101045.28;5106132;28;20051;-59
2022/12/28 04:00:26;;;;;;;9.52;2.33;;;;;;;7.07;89.83;101030.19;5110125;28;20039;-59
2022/12/28 04:02:53;;;;;;;7.45;2.33;;;;;;;7.08;90.07;101026.59;5104921;28;20400;-60
2022/12/28 04:05:20;;;;;;;9.10;2.45;;;;;;;7.11;89.71;101031.59;5109557;28;20118;-59
2022/12/28 04:07:48;;;;;;;5.63;2.40;;;;;;;7.07;89.70;101025.72;5105414;28;20063;-60
2022/12/28 04:10:15;;;;;;;9.80;2.45;;;;;;;7.15;89.12;101026.91;5110629;28;20063;-59
2022/12/28 04:12:41;;;;;;;5.68;2.20;;;;;;;7.23;89.32;101016.59;5105905;28;20404;-60
2022/12/28 04:15:21;;;;;;;5.90;2.13;;;;;;;7.21;88.88;101024.63;5110750;28;20142;-60
2022/12/28 04:17:49;;;;;;;7.68;2.38;;;;;;;7.17;89.84;101019.69;5110178;28;20126;-59
2022/12/28 04:20:16;;;;;;;7.60;2.42;;;;;;;7.16;89.41;101012.78;5105980;28;20040;-59
2022/12/28 04:22:43;;;;;;;5.47;2.17;;;;;;;7.16;89.17;101010.97;5110605;28;20044;-60
2022/12/28 04:25:11;;;;;;;5.63;2.20;;;;;;;7.19;88.92;101001.97;5106202;28;20044;-60
2022/12/28 04:27:38;;;;;;;8.90;2.80;;;;;;;7.31;88.45;101003.59;5109393;28;20050;-59
2022/12/28 04:30:14;;;;;;;8.10;2.50;;;;;;;7.33;88.28;100999.03;5106163;28;20051;-60
2022/12/28 04:32:41;;;;;;;7.70;2.40;;;;;;;7.57;87.35;101003.25;5110138;28;20090;-60
2022/12/28 04:35:08;;;;;;;6.20;2.10;;;;;;;7.53;87.85;100992.09;5104823;28;20050;-59
2022/12/28 04:37:42;;;;;;;6.82;2.58;;;;;;;7.67;87.29;100994.41;5108726;28;20036;-59
2022/12/28 04:40:09;;;;;;;8.40;2.22;;;;;;;7.70;88.09;100985.41;5105239;28;20515;-59
2022/12/28 04:42:36;;;;;;;9.40;2.30;;;;;;;7.77;87.13;100986.56;5108907;28;20048;-60
2022/12/28 04:45:03;;;;;;;9.38;2.08;;;;;;;7.76;87.14;100984.88;5104271;28;20040;-60
2022/12/28 04:47:30;;;;;;;8.68;2.58;;;;;;;7.72;86.88;100975.53;5108470;28;20043;-60
2022/12/28 04:49:57;;;;;;;7.32;2.28;;;;;;;7.82;86.63;100972.94;5105571;28;20481;-59
2022/12/28 04:52:24;;;;;;;6.18;2.20;;;;;;;7.77;86.27;100969.88;5103461;28;20427;-59
2022/12/28 04:54:51;;;;;;;6.82;2.40;;;;;;;7.80;86.32;100965.16;5090499;28;20051;-59
2022/12/28 04:57:18;;;;;;;9.15;2.60;;;;;;;7.93;85.56;100953.53;5095154;28;20052;-59
2022/12/28 04:59:44;;;;;;;7.50;2.55;;;;;;;7.97;84.90;100955.81;5090324;28;20481;-59
2022/12/28 05:02:11;;;;;;;12.13;2.38;;;;;;;7.97;85.16;100958.44;5096105;28;20044;-60
2022/12/28 05:04:37;;;;;;;8.32;2.55;;;;;;;8.04;84.95;100964.88;5091466;28;20052;-60
2022/12/28 05:07:04;;;;;;;13.18;2.50;;;;;;;8.07;84.99;100964.59;5095022;28;20043;-60
2022/12/28 05:09:31;;;;;;;8.13;2.38;;;;;;;8.13;85.31;100965.03;5091757;28;20046;-59
2022/12/28 05:11:57;;;;;;;8.55;2.28;;;;;;;8.16;84.44;100964.78;5095489;28;20087;-60
2022/12/28 05:14:24;;;;;;;5.95;2.63;;;;;;;8.08;85.47;100968.91;5088171;28;20489;-59
2022/12/28 05:16:51;;;;;;;6.63;2.38;;;;;;;8.08;85.56;100968.09;5095159;28;20048;-59
2022/12/28 05:19:18;;;;;;;12.30;2.45;;;;;;;8.13;84.89;100957.97;5074086;28;20101;-59
2022/12/28 05:21:45;;;;;;;7.90;2.20;;;;;;;8.21;84.99;100950.19;5095513;28;20040;-59
2022/12/28 05:24:12;;;;;;;10.38;2.28;;;;;;;8.25;85.12;100951.59;5091306;28;20117;-60
2022/12/28 05:26:38;;;;;;;9.70;2.00;;;;;;;8.19;85.40;100954.78;5095544;28;20374;-59
2022/12/28 05:29:05;;;;;;;9.35;2.55;;;;;;;8.20;84.97;100952.97;5089831;28;20111;-60
2022/12/28 05:31:32;;;;;;;7.57;2.40;;;;;;;8.22;85.89;100941.31;5094235;28;20036;-60
2022/12/28 05:33:58;;;;;;;7.25;2.35;;;;;;;8.27;84.91;100957.56;5091329;28;20052;-59
2022/12/28 05:36:26;;;;;;;10.07;2.30;;;;;;;8.36;84.30;100933.97;5093384;28;20379;-59
2022/12/28 05:38:54;;;;;;;8.00;2.63;;;;;;;8.33;85.03;100940.38;5093286;28;20044;-59
2022/12/28 05:41:24;;;;;;;6.85;2.10;;;;;;;8.41;84.23;100939.69;5093209;28;20505;-59
2022/12/28 05:43:51;;;;;;;10.60;2.35;;;;;;;8.40;84.77;100943.28;5093819;28;20123;-60
2022/12/28 05:46:24;;;;;;;8.20;2.83;;;;;;;8.44;83.99;100939.44;5091473;28;20052;-60
2022/12/28 05:48:53;;;;;;;6.97;2.67;;;;;;;8.45;84.14;100947.22;5093424;28;20113;-60
2022/12/28 05:51:24;;;;;;;5.57;2.00;;;;;;;8.43;84.71;100940.44;5092982;28;20105;-59
2022/12/28 05:53:51;;;;;;;11.98;2.50;;;;;;;8.47;84.89;100936.53;5093916;28;20078;-60
2022/12/28 05:56:23;;;;;;;8.02;2.40;;;;;;;8.45;85.08;100928.72;5092546;28;20040;-59
2022/12/28 05:58:53;;;;;;;10.40;3.20;;;;;;;8.43;84.72;100919.28;5093705;28;20595;-60
2022/12/28 06:01:22;;;;;;;6.93;2.10;;;;;;;8.44;84.72;100920.94;5091642;28;20085;-59
2022/12/28 06:03:55;;;;;;;5.85;1.90;;;;;;;8.41;84.75;100915.91;5092915;28;20044;-59
2022/12/28 06:06:22;;;;;;;8.45;2.33;;;;;;;8.39;85.50;100928.41;5092842;28;20071;-59
2022/12/28 06:08:49;;;;;;;6.82;2.20;;;;;;;8.39;84.69;100912.56;5093086;28;20050;-59
2022/12/28 06:11:18;;;;;;;7.03;2.00;;;;;;;8.42;85.03;100909.66;5090715;28;20039;-59
2022/12/28 06:13:45;;;;;;;4.88;1.85;;;;;;;8.43;84.54;100913.97;5094376;28;20044;-59
2022/12/28 06:16:16;;;;;;;7.55;2.05;;;;;;;8.51;84.44;100898.25;5090903;28;20040;-60
2022/12/28 06:18:43;;;;;;;5.40;1.90;;;;;;;8.67;84.08;100904.84;5094158;28;20505;-60
2022/12/28 06:21:14;;;;;;;6.25;1.90;;;;;;;8.55;84.47;100896.19;5090645;28;20059;-59
2022/12/28 06:23:42;;;;;;;9.15;2.15;;;;;;;8.57;84.58;100896.91;5093325;28;20048;-59
2022/12/28 06:26:12;;;;;;;6.35;1.95;;;;;;;8.57;84.58;100900.38;5089980;28;20098;-59
2022/12/28 06:28:39;;;;;;;9.93;2.10;;;;;;;8.58;85.00;100885.34;5092802;28;20070;-59
2022/12/28 06:31:12;;;;;;;8.07;2.08;;;;;;;8.47;85.85;100885.47;5091727;28;20047;-60
2022/12/28 06:33:40;;;;;;;5.97;1.70;;;;;;;8.49;85.63;100891.44;5094218;28;20147;-60
2022/12/28 06:36:25;;;;;;;6.25;2.10;;;;;;;8.61;85.57;100885.06;5089625;28;20044;-62
2022/12/28 06:38:54;;;;;;;5.53;1.80;;;;;;;8.61;85.22;100887.72;5091368;28;20044;-60
2022/12/28 06:41:21;;;;;;;8.27;2.13;;;;;;;8.57;86.25;100883.69;5092099;28;20102;-60
2022/12/28 06:43:49;;;;;;;5.15;1.80;;;;;;;8.62;86.20;100895.53;5092852;28;20135;-60
2022/12/28 06:46:18;;;;;;;7.65;2.13;;;;;;;8.55;87.30;100891.75;5091009;28;20039;-60
2022/12/28 06:48:45;;;;;;;3.92;1.63;;;;;;;8.45;87.73;100891.72;5093435;28;20036;-59
2022/12/28 06:51:16;;;;;;;8.23;2.20;;;;;;;8.45;89.04;100898.81;5089940;28;20040;-60
2022/12/28 06:53:43;;;;;;;6.17;1.90;;;;;;;8.39;89.13;100889.59;5092575;28;20482;-60
2022/12/28 06:56:13;;;;;;;5.03;1.77;;;;;;;8.39;88.57;100889.59;5088233;28;20056;-61
2022/12/28 06:58:41;;;;;;;5.78;2.00;;;;;;;8.41;89.69;100895.59;5093772;28;20086;-61
2022/12/28 07:01:11;;;;;;;12.07;2.70;;;;;;;8.46;89.36;100900.50;5089345;28;20115;-63
2022/12/28 07:03:38;;;;;;;8.45;1.90;;;;;;;8.45;88.81;100897.00;5094040;28;20130;-61
2022/12/28 07:06:05;;;;;;;5.32;1.95;;;;;;;8.56;88.34;100903.97;5083876;28;20044;-62
2022/12/28 07:08:33;;;;;;;7.13;2.15;;;;;;;8.60;88.96;100901.91;5088282;28;20094;-61
2022/12/28 07:11:06;;;;;;;8.65;2.40;;;;;;;8.45;89.28;100893.53;5086144;28;20436;-62
2022/12/28 07:13:33;;;;;;;6.78;1.80;;;;;;;8.50;88.78;100903.72;5070780;28;20040;-60
2022/12/28 07:16:03;;;;;;;6.63;1.98;;;;;;;8.47;89.00;100898.69;5090100;28;20044;-60
2022/12/28 07:18:31;;;;;;;7.95;2.00;;;;;;;8.45;89.42;100886.44;5093836;28;20036;-60
2022/12/28 07:21:02;;;;;;;6.97;1.92;;;;;;;8.44;89.07;100898.00;5089063;28;20036;-60
2022/12/28 07:23:30;;;;;;;8.70;1.98;;;;;;;8.42;89.91;100897.28;5093676;28;20481;-60
2022/12/28 07:26:02;;;;;;;6.63;1.88;;;;;;;8.48;89.56;100897.69;5089080;28;20517;-60
2022/12/28 07:28:29;;;;;;;7.60;2.00;;;;;;;8.41;90.00;100897.41;5092510;28;20048;-60
2022/12/28 07:30:56;;;;;;;4.63;1.80;;;;;;;8.44;90.04;100898.00;5089080;28;20571;-60
2022/12/28 07:33:22;;;;;;;10.48;2.20;;;;;;;8.38;91.00;100897.66;5093199;28;20072;-60
2022/12/28 07:35:49;;;;;;;5.32;1.80;;;;;;;8.42;91.05;100889.38;5089109;28;20233;-60
2022/12/28 07:38:16;;;;;;;6.18;1.77;;;;;;;8.41;91.03;100894.75;5093635;28;20070;-60
2022/12/28 07:40:46;;;;;;;6.38;1.60;;;;;;;8.35;90.84;100882.91;5088411;28;20591;-60
2022/12/28 07:43:13;;;;;;;3.42;1.60;;;;;;;8.41;91.18;100890.28;5093165;28;20044;-60
2022/12/28 07:45:39;;;;;;;7.50;1.90;;;;;;;8.41;90.35;100884.19;5088951;28;20032;-60
2022/12/28 07:48:06;;;;;;;10.38;1.85;;;;;;;8.49;90.11;100881.69;5093273;28;20051;-60
2022/12/28 07:50:33;;;;;;;6.57;1.83;;;;;;;8.54;89.71;100886.59;5089819;28;20043;-60
2022/12/28 07:53:03;;;;;;;7.53;2.13;;;;;;;8.48;89.91;100887.97;5093417;28;20040;-60
2022/12/28 07:55:30;;;;;;;6.25;1.85;;;;;;;8.45;90.19;100883.78;5090839;28;20063;-60
2022/12/28 07:57:57;;;;;;;4.18;1.83;;;;;;;8.49;90.56;100888.81;5092011;28;20047;-60
2022/12/28 08:00:24;;;;;;;6.85;1.83;;;;;;;8.49;89.81;100871.13;5090982;28;20052;-60
2022/12/28 08:02:54;;;;;;;8.10;1.88;;;;;;;8.53;89.99;100874.34;5090026;28;20093;-60
2022/12/28 08:05:21;;;;;;;7.70;1.70;;;;;;;8.50;90.50;100872.81;5092645;28;20056;-60
2022/12/28 08:07:48;;;;;;;7.10;1.55;;;;;;;8.60;89.54;100878.97;5089160;28;20055;-60
2022/12/28 08:10:14;;;;;;;5.43;1.90;;;;;;;8.68;89.15;100878.25;5093330;28;20051;-60
2022/12/28 08:12:41;;;;;;;3.70;1.65;;;;;;;8.66;89.49;100867.00;5088198;28;20044;-60
2022/12/28 08:15:08;;;;;;;6.30;1.58;;;;;;;8.67;89.06;100873.94;5092995;28;20464;-60
2022/12/28 08:17:35;;;;;;;6.68;1.40;;;;;;;8.67;89.15;100868.66;5085263;28;20497;-60
2022/12/28 08:20:02;;;;;;;7.68;1.80;;;;;;;8.61;89.40;100866.56;5092915;28;20079;-60
2022/12/28 08:22:29;;;;;;;4.15;1.50;;;;;;;8.71;89.40;100877.13;5088405;28;20508;-60
2022/12/28 08:24:56;;;;;;;4.45;1.60;;;;;;;8.74;89.28;100882.16;5091540;28;20048;-60
2022/12/28 08:27:23;;;;;;;5.95;1.60;;;;;;;8.67;89.29;100873.94;5089563;28;20044;-60
2022/12/28 08:29:50;;;;;;;6.43;2.03;;;;;;;8.78;89.25;100870.31;5096484;28;20047;-60
2022/12/28 08:32:16;;;;;;;6.03;1.80;;;;;;;8.76;88.80;100867.81;5092059;28;20093;-60
2022/12/28 08:34:43;;;;;;;3.20;1.50;;;;;;;8.81;88.98;100878.81;5096832;28;20048;-60
2022/12/28 08:37:10;;;;;;;3.22;1.45;;;;;;;8.82;88.44;100880.50;5092277;28;20052;-60
2022/12/28 08:39:36;;;;;;;4.78;1.50;;;;;;;8.92;88.39;100875.19;5096588;28;20097;-60
2022/12/28 08:42:03;;;;;;;7.07;2.45;;;;;;;8.82;88.94;100880.50;5091600;28;20083;-60
2022/12/28 08:44:30;;;;;;;10.15;1.80;;;;;;;8.82;89.22;100879.63;5096310;28;20036;-60
2022/12/28 08:46:57;;;;;;;7.22;1.83;;;;;;;8.85;89.42;100879.38;5092014;28;20062;-59
2022/12/28 08:49:23;;;;;;;6.03;1.77;;;;;;;8.90;89.19;100881.63;5096184;28;20432;-60
2022/12/28 08:51:50;;;;;;;5.20;1.60;;;;;;;8.83;89.42;100874.22;5091602;28;20028;-60
2022/12/28 08:54:17;;;;;;;3.72;1.50;;;;;;;8.91;88.04;100860.28;5096009;28;20489;-60
2022/12/28 08:56:44;;;;;;;4.20;1.67;;;;;;;8.97;88.73;100875.63;5092014;28;20040;-60
2022/12/28 08:59:14;;;;;;;6.47;2.00;;;;;;;9.06;88.40;100878.38;5096259;28;20048;-60
2022/12/28 09:01:41;;;;;;;4.72;1.85;;;;;;;9.07;88.16;100878.25;5091502;28;20047;-61
2022/12/28 09:04:15;;;;;;;5.57;1.40;;;;;;;8.99;88.14;100871.00;5096272;28;20048;-59
2022/12/28 09:06:42;;;;;;;6.90;1.75;;;;;;;9.12;87.08;100880.47;5111329;28;20696;-60
2022/12/28 09:09:12;;;;;;;4.63;1.67;;;;;;;9.05;87.85;100882.00;5116630;28;20050;-59
2022/12/28 09:11:39;;;;;;;3.35;1.70;;;;;;;9.09;88.59;100875.47;5111632;28;20357;-59
2022/12/28 09:14:08;;;;;;;6.53;1.83;;;;;;;9.14;87.66;100878.53;5109693;28;20052;-60
2022/12/28 09:16:36;;;;;;;4.78;1.80;;;;;;;9.10;87.54;100872.69;5091268;28;20050;-60
2022/12/28 09:19:06;;;;;;;8.20;1.80;;;;;;;9.14;87.11;100875.88;5093871;28;20040;-60
2022/12/28 09:21:36;;;;;;;4.15;1.60;;;;;;;9.16;87.14;100881.84;5095393;28;20457;-60
2022/12/28 09:24:04;;;;;;;4.43;1.50;;;;;;;9.20;86.31;100875.28;5091305;28;20493;-60
2022/12/28 09:26:36;;;;;;;6.35;1.67;;;;;;;9.30;86.28;100881.41;5094622;28;20048;-60
2022/12/28 09:29:05;;;;;;;5.18;1.60;;;;;;;9.20;86.00;100881.44;5090179;28;20400;-60
2022/12/28 09:31:35;;;;;;;6.10;1.65;;;;;;;9.26;85.89;100874.75;5095711;28;20097;-59
2022/12/28 09:34:03;;;;;;;4.40;1.73;;;;;;;9.32;85.69;100879.47;5073159;28;20119;-60
2022/12/28 09:36:50;;;;;;;3.53;1.50;;;;;;;9.25;86.21;100873.06;5094128;28;20040;-60
2022/12/28 09:39:19;;;;;;;4.00;1.63;;;;;;;9.29;85.72;100877.09;5091934;28;20386;-60
2022/12/28 09:44:47;;;;;;;6.00;1.60;;;;;;;9.32;85.36;100868.88;5088692;27;20332;-59
2022/12/28 09:47:28;;;;;;;7.72;1.70;;;;;;;9.39;85.80;100874.44;5086482;28;20138;-59
2022/12/28 09:50:17;;;;;;;5.45;1.67;;;;;;;9.45;85.52;100873.84;5090928;28;20054;-59
2022/12/28 09:52:57;;;;;;;4.70;1.50;;;;;;;9.45;84.46;100878.31;5085917;28;20090;-59
2022/12/28 09:55:26;;;;;;;4.72;1.48;;;;;;;9.44;84.44;100881.94;5090685;28;20501;-59
2022/12/28 09:57:56;;;;;;;7.82;1.77;;;;;;;9.44;85.01;100881.94;5086167;28;20559;-59
2022/12/28 10:00:27;;;;;;;3.35;1.50;;;;;;;9.41;84.59;100870.66;5090531;28;20123;-59
2022/12/28 10:02:59;;;;;;;4.43;1.70;;;;;;;9.47;84.37;100865.78;5084564;28;20060;-59
2022/12/28 10:05:26;;;;;;;8.00;1.73;;;;;;;9.48;84.12;100863.00;5090255;28;20497;-59
2022/12/28 10:07:57;;;;;;;4.57;1.60;;;;;;;9.50;84.15;100861.03;5085478;28;20045;-59
2022/12/28 10:10:25;;;;;;;5.43;1.80;;;;;;;9.64;83.44;100857.09;5090618;28;20044;-60
2022/12/28 10:12:53;;;;;;;4.72;1.77;;;;;;;9.73;83.14;100852.72;5084147;28;20111;-61
2022/12/28 10:15:24;;;;;;;4.25;1.60;;;;;;;9.72;83.37;100849.22;5090189;28;20048;-60
2022/12/28 10:17:50;;;;;;;5.07;1.93;;;;;;;9.85;82.63;100842.78;5082241;28;20055;-60
2022/12/28 10:20:20;;;;;;;7.93;1.90;;;;;;;9.83;82.30;100847.38;5090187;28;20294;-61
2022/12/28 10:22:55;;;;;;;5.45;1.50;;;;;;;9.89;82.51;100849.44;5088851;28;20047;-60
2022/12/28 10:25:24;;;;;;;2.30;1.20;;;;;;;9.86;81.98;100847.94;5088299;28;20504;-59
2022/12/28 10:27:52;;;;;;;4.18;1.70;;;;;;;9.93;82.56;100835.75;5088291;28;20040;-60
2022/12/28 10:30:25;;;;;;;7.50;1.55;;;;;;;9.99;82.00;100834.34;5085263;28;20124;-60
2022/12/28 10:32:56;;;;;;;3.08;1.50;;;;;;;9.91;82.05;100843.00;5089182;28;20068;-60
2022/12/28 10:35:41;;;;;;;4.78;1.52;;;;;;;9.91;82.80;100848.31;5087987;28;20044;-60
2022/12/28 10:38:29;;;;;;;2.60;1.30;;;;;;;10.03;81.61;100833.03;5084620;28;20102;-60
2022/12/28 10:41:02;;;;;;;5.97;1.65;;;;;;;9.99;82.37;100839.63;5089870;28;20081;-59
2022/12/28 10:43:33;;;;;;;5.32;1.70;;;;;;;10.04;81.33;100828.56;5097772;28;20596;-60
2022/12/28 10:46:01;;;;;;;4.10;1.60;;;;;;;10.06;81.90;100821.31;5109940;28;20040;-60
2022/12/28 10:48:32;;;;;;;5.07;1.70;;;;;;;10.00;82.39;100820.09;5105284;28;20261;-60
2022/12/28 10:51:11;;;;;;;4.25;1.70;;;;;;;10.01;81.91;100820.94;5109975;28;20123;-60
2022/12/28 10:53:42;;;;;;;6.15;1.85;;;;;;;10.01;81.88;100816.47;5104133;28;20043;-60
2022/12/28 10:58:50;;;;;;;6.93;1.83;;;;;;;9.94;81.79;100810.09;5109291;27;1191460;-59
2022/12/28 11:01:24;;;;;;;7.82;1.52;;;;;;;9.88;82.46;100800.09;5130253;28;20044;-60
2022/12/28 11:03:59;;;;;;;5.95;1.77;;;;;;;10.05;82.11;100815.19;5126680;28;20126;-60
2022/12/28 11:06:30;;;;;;;4.65;1.70;;;;;;;10.05;81.94;100809.88;5131180;27;20051;-60
2022/12/28 11:11:43;;;;;;;6.82;2.03;;;;;;;10.03;82.13;100803.06;5131356;27;20439;-60
2022/12/28 11:14:36;;;;;;;6.00;1.83;;;;;;;10.03;82.13;100798.59;5081693;28;20045;-60
2022/12/28 11:17:18;;;;;;;5.38;1.70;;;;;;;9.93;82.25;100795.16;5072466;28;20432;-59
2022/12/28 11:19:46;;;;;;;5.38;2.00;;;;;;;10.08;81.66;100800.81;5082553;28;20040;-60
2022/12/28 11:22:19;;;;;;;4.10;1.60;;;;;;;9.94;81.87;100799.50;5072341;28;20063;-59
2022/12/28 11:24:47;;;;;;;6.88;1.90;;;;;;;9.99;82.13;100787.47;5086132;28;20131;-60
2022/12/28 11:27:17;;;;;;;7.18;1.90;;;;;;;9.99;82.32;100776.84;5072205;28;20064;-60
2022/12/28 11:29:47;;;;;;;4.28;1.77;;;;;;;9.98;81.78;100777.00;5068362;28;20544;-60
2022/12/28 11:32:20;;;;;;;12.10;2.20;;;;;;;9.85;82.56;100776.53;5090269;28;20055;-60
2022/12/28 11:34:48;;;;;;;4.93;1.80;;;;;;;9.94;82.10;100783.59;5085638;28;20338;-60
2022/12/28 11:37:15;;;;;;;4.97;1.90;;;;;;;9.89;82.89;100776.06;5089956;28;20044;-59
2022/12/28 11:39:44;;;;;;;5.93;2.05;;;;;;;10.00;82.07;100772.38;5066899;28;20037;-60
2022/12/28 11:42:32;;;;;;;6.75;2.13;;;;;;;9.90;82.08;100764.50;5096067;28;20378;-60
2022/12/28 11:45:13;;;;;;;8.98;2.00;;;;;;;9.92;82.20;100770.47;5084680;28;20570;-60
2022/12/28 11:47:40;;;;;;;4.85;1.65;;;;;;;9.94;81.05;100773.81;5089906;28;20509;-60
2022/12/28 11:50:40;;;;;;;6.55;2.10;;;;;;;10.01;81.30;100778.53;5067125;28;20028;-60
2022/12/28 11:53:33;;;;;;;6.78;2.15;;;;;;;9.93;81.51;100768.66;5090079;28;20075;-59
2022/12/28 11:56:09;;;;;;;5.35;2.00;;;;;;;9.90;81.59;100766.31;5085304;28;20044;-60
2022/12/28 11:58:45;;;;;;;6.45;1.92;;;;;;;9.84;80.63;100748.34;5076893;28;20452;-60
2022/12/28 12:04:14;;;;;;;7.38;2.58;;;;;;;9.97;80.95;100756.81;5066147;28;20410;-60
2022/12/28 12:09:28;;;;;;;8.65;1.80;;;;;;;9.94;79.59;100765.88;5087522;27;20048;-60
2022/12/28 12:11:57;;;;;;;8.57;1.70;;;;;;;9.92;79.66;100743.97;5090351;28;20456;-60
2022/12/28 12:14:48;;;;;;;12.75;2.13;;;;;;;9.94;79.16;100752.63;5086664;28;20041;-59
2022/12/28 12:17:40;;;;;;;8.65;2.08;;;;;;;9.95;78.87;100748.13;5089274;28;20131;-59
2022/12/28 12:20:32;;;;;;;7.18;1.85;;;;;;;9.88;78.89;100741.81;5084547;28;20421;-60
2022/12/28 12:23:08;;;;;;;3.90;1.63;;;;;;;9.88;78.58;100732.03;5090430;28;20090;-59
2022/12/28 12:25:47;;;;;;;8.65;1.90;;;;;;;9.89;78.10;100736.31;5088756;28;20071;-59
2022/12/28 12:28:39;;;;;;;5.78;1.75;;;;;;;9.85;78.14;100729.66;5090238;28;20534;-59
2022/12/28 12:31:11;;;;;;;6.90;1.80;;;;;;;9.90;78.28;100730.06;5085676;28;20789;-59
2022/12/28 12:33:43;;;;;;;11.80;2.05;;;;;;;9.89;78.19;100730.19;5090199;28;20068;-59
2022/12/28 12:36:49;;;;;;;7.30;1.85;;;;;;;9.85;77.71;100718.25;5084534;28;20091;-59
2022/12/28 12:39:44;;;;;;;4.78;1.80;;;;;;;9.84;76.40;100719.22;5089998;28;20052;-61
2022/12/28 12:42:37;;;;;;;5.07;1.50;;;;;;;9.90;76.33;100718.63;5085444;28;20497;-59
2022/12/28 12:45:34;;;;;;;6.63;1.80;;;;;;;9.76;76.10;100720.78;5090054;28;20127;-60
2022/12/28 12:48:29;;;;;;;6.57;1.88;;;;;;;9.87;76.10;100717.09;5086773;28;20093;-60